createdAt,value
2018-11-25T00:06:26.849Z,100494.84
2018-11-25T00:14:48.097Z,100493.64
2018-11-25T00:23:09.118Z,100499.34
2018-11-25T00:31:30.165Z,100499.93
2018-11-25T00:39:51.197Z,100493.98
2018-11-25T00:48:12.175Z,100490.45
2018-11-25T00:56:33.215Z,100497.68
2018-11-25T01:05:00.185Z,100499.37
2018-11-25T01:13:21.189Z,100501.20
2018-11-25T01:21:42.354Z,100507.56
2018-11-25T01:30:03.371Z,100500.80
2018-11-25T01:38:24.373Z,100501.50
2018-11-25T01:46:45.419Z,100501.89
2018-11-25T01:55:06.453Z,100497.81
2018-11-25T02:03:27.454Z,100501.41
2018-11-25T02:11:48.589Z,100489.66
2018-11-25T02:20:09.568Z,100488.14
2018-11-25T02:28:31.677Z,100481.23
2018-11-25T02:36:52.712Z,100480.30
2018-11-25T02:45:13.740Z,100481.88
2018-11-25T02:53:34.741Z,100481.41
2018-11-25T03:01:55.764Z,100492.15
2018-11-25T03:10:16.775Z,100485.39
2018-11-25T03:18:37.786Z,100496.94
2018-11-25T03:26:58.984Z,100490.58
2018-11-25T03:35:20.001Z,100482.74
2018-11-25T03:43:41.010Z,100480.13
2018-11-25T03:52:02.034Z,100482.06
2018-11-25T04:00:23.040Z,100474.63
2018-11-25T04:08:44.073Z,100479.45
2018-11-25T04:17:05.084Z,100479.44
2018-11-25T04:25:26.082Z,100495.01
2018-11-25T04:33:47.105Z,100504.13
2018-11-25T04:42:08.129Z,100510.63
2018-11-25T04:50:29.130Z,100506.23
2018-11-25T04:58:50.157Z,100501.92
2018-11-25T05:07:11.158Z,100507.48
2018-11-25T05:15:32.181Z,100511.59
2018-11-25T05:23:53.202Z,100505.22
2018-11-25T05:32:14.206Z,100502.75
2018-11-25T05:40:35.278Z,100489.84
2018-11-25T05:48:56.263Z,100482.27
2018-11-25T05:57:17.261Z,100480.13
2018-11-25T06:05:38.260Z,100472.40
2018-11-25T06:13:59.243Z,100479.53
2018-11-25T06:22:20.600Z,100491.78
2018-11-25T06:30:41.607Z,100496.47
2018-11-25T06:39:02.610Z,100495.77
2018-11-25T06:47:23.602Z,100496.64
2018-11-25T06:55:44.579Z,100509.48
2018-11-25T07:04:05.602Z,100512.60
2018-11-25T07:12:28.678Z,100517.69
2018-11-25T07:20:49.814Z,100516.52
2018-11-25T07:29:10.834Z,100517.59
2018-11-25T07:37:31.854Z,100530.55
2018-11-25T07:45:53.935Z,100525.78
2018-11-25T07:54:14.962Z,100523.95
2018-11-25T08:02:41.418Z,100521.17
2018-11-25T08:10:57.014Z,100511.30
2018-11-25T08:19:18.008Z,100514.81
2018-11-25T08:27:39.019Z,100504.70
2018-11-25T08:36:00.030Z,100512.53
2018-11-25T08:44:21.040Z,100529.44
2018-11-25T08:52:42.376Z,100527.47
2018-11-25T09:01:03.439Z,100518.66
2018-11-25T09:09:24.447Z,100510.25
2018-11-25T09:17:45.633Z,100498.13
2018-11-25T09:26:06.864Z,100503.08
2018-11-25T09:34:27.865Z,100505.68
2018-11-25T09:42:48.871Z,100511.39
2018-11-25T09:51:09.893Z,100519.70
2018-11-25T09:59:30.894Z,100517.55
2018-11-25T10:07:51.902Z,100519.13
2018-11-25T10:16:12.887Z,100522.94
2018-11-25T10:24:33.913Z,100513.31
2018-11-25T10:32:54.934Z,100505.05
2018-11-25T10:41:15.948Z,100499.20
2018-11-25T10:49:36.956Z,100488.30
2018-11-25T10:57:57.975Z,100484.17
2018-11-25T11:06:20.034Z,100476.10
2018-11-25T11:14:41.053Z,100473.92
2018-11-25T11:23:02.095Z,100477.09
2018-11-25T11:31:23.083Z,100487.56
2018-11-25T11:39:44.126Z,100490.11
2018-11-25T11:48:05.119Z,100488.66
2018-11-25T11:56:26.191Z,100492.91
2018-11-25T12:04:47.210Z,100489.59
2018-11-25T12:13:08.245Z,100492.70
2018-11-25T12:21:29.265Z,100490.05
2018-11-25T12:29:50.251Z,100485.98
2018-11-25T12:38:11.231Z,100492.60
2018-11-25T12:46:32.213Z,100489.66
2018-11-25T12:54:53.211Z,100483.78
2018-11-25T13:03:14.202Z,100477.25
2018-11-25T13:11:35.202Z,100473.49
2018-11-25T13:19:56.209Z,100462.55
2018-11-25T13:28:17.213Z,100459.73
2018-11-25T13:36:38.191Z,100459.76
2018-11-25T13:44:59.210Z,100454.94
2018-11-25T13:53:20.245Z,100450.00
2018-11-25T14:01:41.223Z,100438.45
2018-11-25T14:10:02.224Z,100428.69
2018-11-25T14:18:23.222Z,100424.19
2018-11-25T14:26:44.254Z,100432.30
2018-11-25T14:35:05.259Z,100422.20
2018-11-25T14:43:26.243Z,100424.56
2018-11-25T14:51:47.345Z,100414.68
2018-11-25T15:00:08.415Z,100430.89
2018-11-25T15:08:29.518Z,100424.45
2018-11-25T15:16:50.524Z,100437.59
2018-11-25T15:25:11.526Z,100431.67
2018-11-25T15:33:32.550Z,100437.66
2018-11-25T15:41:53.554Z,100427.36
2018-11-25T15:50:14.566Z,100422.44
2018-11-25T15:58:35.539Z,100414.45
2018-11-25T16:06:56.520Z,100419.71
2018-11-25T16:15:17.583Z,100423.63
2018-11-25T16:23:38.738Z,100420.92
2018-11-25T16:31:59.748Z,100410.58
2018-11-25T16:40:20.729Z,100410.77
2018-11-25T16:48:41.892Z,100416.83
2018-11-25T16:57:02.904Z,100407.91
2018-11-25T17:05:23.894Z,100398.16
2018-11-25T17:13:44.922Z,100400.05
2018-11-25T17:22:05.912Z,100394.11
2018-11-25T17:30:26.892Z,100402.66
2018-11-25T17:38:47.918Z,100407.59
2018-11-25T17:47:08.991Z,100405.27
2018-11-25T17:55:30.029Z,100415.52
2018-11-25T18:03:51.109Z,100423.31
2018-11-25T18:12:12.098Z,100421.38
2018-11-25T18:20:33.075Z,100429.37
2018-11-25T18:28:54.094Z,100430.61
2018-11-25T18:37:19.669Z,100448.69
2018-11-25T18:45:41.721Z,100438.09
2018-11-25T18:54:02.772Z,100439.23
2018-11-25T19:02:23.835Z,100441.29
2018-11-25T19:10:44.910Z,100436.91
2018-11-25T19:19:06.227Z,100426.23
2018-11-25T19:27:27.321Z,100415.08
2018-11-25T19:35:48.308Z,100416.93
2018-11-25T19:44:10.394Z,100398.83
2018-11-25T19:52:31.398Z,100395.48
2018-11-25T20:00:52.383Z,100390.81
2018-11-25T20:09:13.830Z,100389.54
2018-11-25T20:17:34.859Z,100404.22
2018-11-25T20:25:55.926Z,100403.91
2018-11-25T20:34:16.927Z,100393.08
2018-11-25T20:42:37.953Z,100392.35
2018-11-25T20:50:59.044Z,100392.98
2018-11-25T20:59:20.085Z,100401.27
2018-11-25T21:07:41.173Z,100386.84
2018-11-25T21:16:02.171Z,100396.81
2018-11-25T21:24:23.190Z,100402.78
2018-11-25T21:32:44.194Z,100394.50
2018-11-25T21:41:05.179Z,100401.92
2018-11-25T21:49:26.222Z,100395.12
2018-11-25T21:57:47.228Z,100397.67
2018-11-25T22:06:08.269Z,100400.00
2018-11-25T22:14:29.282Z,100392.50
2018-11-25T22:22:50.286Z,100403.59
2018-11-25T22:31:11.259Z,100422.64
2018-11-25T22:39:32.297Z,100425.41
2018-11-25T22:47:53.279Z,100414.98
2018-11-25T22:56:14.305Z,100421.73
2018-11-25T23:04:35.666Z,100419.42
2018-11-25T23:12:56.684Z,100418.67
2018-11-25T23:21:17.710Z,100413.88
2018-11-25T23:29:38.725Z,100417.19
2018-11-25T23:37:59.735Z,100419.67
2018-11-25T23:46:20.754Z,100417.46
2018-11-25T23:54:41.773Z,100420.39
